map of CRL home
CRL - Airport
Location
City:  Charleroi, Hainaut, Belgium
Name:Brussels South Charleroi Airport
ICAO:EBCI
IATA:CRL

Details
Type:Airport (Aerodrome, Airfield)
Latitude:5027'36"N (50.460000)
Longitude:427'10"E (4.452778)
Elevation:614 ft (187 m)
Variation:1.46E (WMM2015v2 magnetic declination)
0.18 annual change
Runways:1
Longest:8366 × 148 ft (2550 × 45 m), paved

Time
Time Zone:UTC+1 (DST+2)
Local Time:

Weather
METAR:EBCI 041350Z 20013KT 9999 FEW010 BKN040 03/M02 Q1024 TEMPO 4000 -SN BKN008
TAF:EBCI 041100Z 0412/0518 19015G25KT 9999 BKN030
BECMG 0414/0415 BKN007
TEMPO 0415/0419 2500 RASN BKN003
BECMG 0423/0501 22008KT
TEMPO 0502/0509 2500 BR BKN002 PROB30 0503/0508 0800 FG

Related Locations
Nearby:
Farthest:CHT: 11969 mi / 19262 km
Waitangi [Tuuta], CIT, NZ

Find:

   beyond  
but within

Other Information
Maps:
NOTAMs:
Links:
Sources:

  
  • flag of Belgium
  • flag of Hainaut
  • flag of Charleroi
  

Sectional Chart

Flight Planning
at skyvector.com

Satellite Image

Google Maps Satellite view

 

Copyright © 2004-2019 Karl L. Swartz. All rights reserved.
The Great Circle Mapper name and logo are trademarks of the Great Circle Mapper.
All other trademarks mentioned herein belong to their respective owners.
Please see credits for attibutions and further copyright information.

  Follow gcmap on Facebook Follow gcmap on Twitter GCmap on LinkedIn

hCard Microformat

Geo Microformat